Time;durP1;ratioP1;P1;durP2;ratioP2;P2;SDS_P1;SDS_P2;PMS_P1;PMS_P2;Temp;Humidity;BMP_temperature;BMP_pressure;BME280_temperature;BME280_humidity;BME280_pressure;Samples;Min_cycle;Max_cycle;Signal;HPM_P1;HPM_P2
2022/11/27 00:01:29;;;;;;;3.83;1.95;;;8.10;82.30;;;;;;5005797;28;20334;-61
2022/11/27 00:03:55;;;;;;;5.03;2.00;;;8.10;82.20;;;;;;4992711;28;20034;-61
2022/11/27 00:06:23;;;;;;;2.55;1.42;;;8.10;82.30;;;;;;5006052;28;20033;-60
2022/11/27 00:08:49;;;;;;;1.50;1.20;;;8.00;82.40;;;;;;5007277;28;20021;-60
2022/11/27 00:11:18;;;;;;;3.40;1.98;;;8.00;82.50;;;;;;5008424;28;20065;-61
2022/11/27 00:13:44;;;;;;;4.15;2.10;;;8.00;82.50;;;;;;5004083;28;20022;-61
2022/11/27 00:16:10;;;;;;;4.30;2.03;;;8.00;82.40;;;;;;5004912;28;20045;-60
2022/11/27 00:18:36;;;;;;;3.13;1.67;;;8.00;82.40;;;;;;4994556;28;20019;-61
2022/11/27 00:21:07;;;;;;;4.07;1.38;;;8.00;82.50;;;;;;5005283;28;20057;-60
2022/11/27 00:23:34;;;;;;;3.47;2.00;;;8.00;82.50;;;;;;4997955;28;20385;-60
2022/11/27 00:26:00;;;;;;;1.98;1.48;;;7.90;82.40;;;;;;5020102;28;20027;-60
2022/11/27 00:28:26;;;;;;;2.25;1.38;;;7.90;82.30;;;;;;4983488;28;20485;-60
2022/11/27 00:30:52;;;;;;;7.53;1.80;;;7.90;82.30;;;;;;4997339;28;20026;-61
2022/11/27 00:33:17;;;;;;;2.42;1.45;;;7.90;82.20;;;;;;4995498;28;20470;-61
2022/11/27 00:35:43;;;;;;;2.53;1.80;;;7.90;82.10;;;;;;5010597;28;20092;-60
2022/11/27 00:38:09;;;;;;;6.85;1.83;;;7.90;82.10;;;;;;5011678;28;20038;-61
2022/11/27 00:40:35;;;;;;;2.70;1.75;;;7.80;82.10;;;;;;4996807;28;20426;-61
2022/11/27 00:43:01;;;;;;;3.80;1.85;;;7.80;82.00;;;;;;4998063;28;20480;-60
2022/11/27 00:45:27;;;;;;;3.83;2.25;;;7.80;82.10;;;;;;5024645;28;20065;-61
2022/11/27 00:47:53;;;;;;;4.15;1.38;;;7.80;82.10;;;;;;4993318;28;20041;-61
2022/11/27 00:50:19;;;;;;;4.55;1.92;;;7.80;82.00;;;;;;5010517;28;20026;-61
2022/11/27 00:52:45;;;;;;;2.42;1.88;;;7.80;81.90;;;;;;5001449;28;20045;-61
2022/11/27 00:55:11;;;;;;;2.30;1.42;;;7.80;81.80;;;;;;5029175;28;20037;-61
2022/11/27 00:57:37;;;;;;;2.85;1.38;;;7.80;81.80;;;;;;4995605;28;20504;-61
2022/11/27 01:00:05;;;;;;;4.72;1.95;;;7.80;81.70;;;;;;4994079;28;20108;-61
2022/11/27 01:02:30;;;;;;;2.90;1.52;;;7.80;81.80;;;;;;4996555;28;20494;-61
2022/11/27 01:04:56;;;;;;;4.63;2.20;;;7.80;81.80;;;;;;4995212;28;20350;-61
2022/11/27 01:07:22;;;;;;;2.90;1.88;;;7.80;81.70;;;;;;4996579;28;20497;-61
2022/11/27 01:09:47;;;;;;;3.20;1.88;;;7.70;81.70;;;;;;4993808;28;20034;-61
2022/11/27 01:12:14;;;;;;;3.30;1.30;;;7.70;81.80;;;;;;4986637;28;20498;-62
2022/11/27 01:14:40;;;;;;;2.20;1.65;;;7.70;81.80;;;;;;4992814;28;20659;-62
2022/11/27 01:17:05;;;;;;;11.85;2.38;;;7.70;81.80;;;;;;4999119;28;20037;-60
2022/11/27 01:19:31;;;;;;;9.32;2.28;;;7.70;81.70;;;;;;4993350;28;20034;-61
2022/11/27 01:21:57;;;;;;;3.10;1.95;;;7.70;81.80;;;;;;5000455;28;20041;-61
2022/11/27 01:24:22;;;;;;;3.08;2.00;;;7.60;81.80;;;;;;4992293;28;20458;-61
2022/11/27 01:26:48;;;;;;;7.50;2.80;;;7.60;81.90;;;;;;5023148;28;20035;-62
2022/11/27 01:29:14;;;;;;;2.67;1.80;;;7.60;82.00;;;;;;5004060;28;20051;-62
2022/11/27 01:31:40;;;;;;;8.23;2.78;;;7.60;82.00;;;;;;4991732;28;20401;-62
2022/11/27 01:34:11;;;;;;;2.72;1.83;;;7.60;82.00;;;;;;5010467;28;20065;-61
2022/11/27 01:36:37;;;;;;;3.13;1.77;;;7.60;82.00;;;;;;5001720;28;20034;-61
2022/11/27 01:39:03;;;;;;;2.53;1.90;;;7.60;82.00;;;;;;5011821;28;20037;-61
2022/11/27 01:41:34;;;;;;;3.90;2.10;;;7.50;81.90;;;;;;5008670;28;20026;-60
2022/11/27 01:44:01;;;;;;;6.78;2.70;;;7.50;81.90;;;;;;5012422;28;20431;-60
2022/11/27 01:46:32;;;;;;;3.42;2.10;;;7.50;81.90;;;;;;4994434;28;20053;-61
2022/11/27 01:49:22;;;;;;;3.35;2.20;;;7.50;81.90;;;;;;5001238;28;20030;-61
2022/11/27 01:51:59;;;;;;;2.95;1.98;;;7.50;82.20;;;;;;4986395;28;20038;-61
2022/11/27 01:54:28;;;;;;;3.60;2.58;;;7.40;81.90;;;;;;4995355;28;20485;-61
2022/11/27 01:56:59;;;;;;;3.97;2.75;;;7.40;82.00;;;;;;4998246;28;20019;-61
2022/11/27 01:59:25;;;;;;;3.80;2.57;;;7.40;81.90;;;;;;4990296;28;20540;-61
2022/11/27 02:01:51;;;;;;;3.88;2.20;;;7.40;81.90;;;;;;4992220;28;20030;-61
2022/11/27 02:04:17;;;;;;;4.68;1.85;;;7.30;81.80;;;;;;5004081;28;20058;-61
2022/11/27 02:06:43;;;;;;;6.22;2.00;;;7.30;81.70;;;;;;5011597;28;20349;-61
2022/11/27 02:09:09;;;;;;;4.10;2.15;;;7.20;81.60;;;;;;4996094;28;20109;-61
2022/11/27 02:12:08;;;;;;;2.50;1.63;;;7.20;81.60;;;;;;5000067;28;20065;-61
2022/11/27 02:15:08;;;;;;;3.83;1.80;;;7.30;81.70;;;;;;5006659;28;20030;-61
2022/11/27 02:17:42;;;;;;;5.53;2.20;;;7.20;81.50;;;;;;5005670;28;20014;-60
2022/11/27 02:20:32;;;;;;;2.97;2.20;;;7.10;81.60;;;;;;5011771;28;20404;-60
2022/11/27 02:23:06;;;;;;;6.10;2.22;;;7.10;81.60;;;;;;4996994;28;20037;-61
2022/11/27 02:25:47;;;;;;;3.75;2.38;;;7.10;81.70;;;;;;5001354;28;20076;-60
2022/11/27 02:28:32;;;;;;;3.65;2.65;;;7.20;82.30;;;;;;4994819;28;20046;-60
2022/11/27 02:31:21;;;;;;;4.40;2.63;;;7.20;81.60;;;;;;4991974;28;20481;-61
2022/11/27 02:33:52;;;;;;;2.35;1.90;;;7.20;81.60;;;;;;4994551;28;20053;-60
2022/11/27 02:36:23;;;;;;;4.00;1.97;;;7.20;81.70;;;;;;5023650;28;20026;-61
2022/11/27 02:39:02;;;;;;;3.13;2.15;;;7.20;81.70;;;;;;4988990;28;20026;-61
2022/11/27 02:41:36;;;;;;;4.65;2.83;;;7.20;81.70;;;;;;4985649;28;20037;-61
2022/11/27 02:44:03;;;;;;;8.98;2.80;;;7.20;81.70;;;;;;5003256;28;20156;-61
2022/11/27 02:46:29;;;;;;;11.77;2.47;;;7.20;81.80;;;;;;4995349;28;20535;-62
2022/11/27 02:48:57;;;;;;;4.15;2.17;;;7.10;81.80;;;;;;5006517;28;20034;-61
2022/11/27 02:51:37;;;;;;;3.60;2.50;;;7.20;81.90;;;;;;4990908;28;20030;-61
2022/11/27 02:54:08;;;;;;;8.90;2.22;;;7.10;81.80;;;;;;4995210;28;20063;-61
2022/11/27 02:56:34;;;;;;;5.03;2.42;;;7.10;82.00;;;;;;4990436;28;20033;-61
2022/11/27 02:59:05;;;;;;;9.98;2.28;;;7.10;82.10;;;;;;5025013;28;20425;-61
2022/11/27 03:01:35;;;;;;;4.65;2.53;;;7.10;82.10;;;;;;4992082;28;20022;-61
2022/11/27 03:04:06;;;;;;;4.90;1.85;;;7.10;82.10;;;;;;5000865;28;20041;-61
2022/11/27 03:06:46;;;;;;;2.80;1.65;;;7.20;82.10;;;;;;4983391;28;20053;-61
2022/11/27 03:09:17;;;;;;;2.83;1.67;;;7.20;82.00;;;;;;4997547;28;20472;-61
2022/11/27 03:11:44;;;;;;;7.53;2.10;;;7.20;82.10;;;;;;4988814;28;20097;-61
2022/11/27 03:14:11;;;;;;;2.38;1.42;;;7.10;82.10;;;;;;5023301;28;20030;-61
2022/11/27 03:17:02;;;;;;;5.25;2.28;;;7.10;82.10;;;;;;4985478;28;20038;-61
2022/11/27 03:19:51;;;;;;;4.53;1.63;;;7.20;82.00;;;;;;4994274;28;20032;-61
2022/11/27 03:22:17;;;;;;;2.40;1.00;;;7.20;82.00;;;;;;5000646;28;20317;-61
2022/11/27 03:24:43;;;;;;;5.78;2.33;;;7.30;82.00;;;;;;4996585;28;20065;-61
2022/11/27 03:27:12;;;;;;;5.03;2.35;;;7.30;81.90;;;;;;4993681;28;20406;-62
2022/11/27 03:29:42;;;;;;;7.20;2.40;;;7.30;81.90;;;;;;4989901;28;20562;-62
2022/11/27 03:32:08;;;;;;;5.05;2.25;;;7.30;81.90;;;;;;4993790;28;20030;-62
2022/11/27 03:34:34;;;;;;;4.80;1.73;;;7.30;81.80;;;;;;5001449;28;20034;-62
2022/11/27 03:37:00;;;;;;;3.97;1.20;;;7.30;81.90;;;;;;4988034;28;20034;-62
2022/11/27 03:39:28;;;;;;;4.60;1.73;;;7.30;81.90;;;;;;5020990;28;20030;-61
2022/11/27 03:42:17;;;;;;;2.85;1.67;;;7.30;82.00;;;;;;4990648;28;20109;-61
2022/11/27 03:45:03;;;;;;;2.60;1.88;;;7.40;81.90;;;;;;4967033;28;20074;-61
2022/11/27 03:47:39;;;;;;;3.58;1.92;;;7.40;82.10;;;;;;4984801;28;20026;-61
2022/11/27 03:50:21;;;;;;;3.22;1.77;;;7.40;82.10;;;;;;5002991;28;20454;-61
2022/11/27 03:53:17;;;;;;;2.30;1.37;;;7.40;82.00;;;;;;4994802;28;20025;-62
2022/11/27 03:56:02;;;;;;;2.40;1.70;;;7.40;82.00;;;;;;5000190;28;20022;-61
2022/11/27 03:58:42;;;;;;;2.58;1.77;;;7.50;82.10;;;;;;4989573;28;20540;-61
2022/11/27 04:01:11;;;;;;;2.83;1.63;;;7.50;82.10;;;;;;5007481;28;20164;-61
2022/11/27 04:03:37;;;;;;;4.25;1.48;;;7.50;82.10;;;;;;5003742;28;20033;-60
2022/11/27 04:06:03;;;;;;;2.97;1.30;;;7.50;82.00;;;;;;4989064;28;20034;-61
2022/11/27 04:08:28;;;;;;;3.22;1.50;;;7.50;82.10;;;;;;5007785;28;20030;-62
2022/11/27 04:10:54;;;;;;;5.97;1.77;;;7.50;82.00;;;;;;5011938;28;20056;-61
2022/11/27 04:13:21;;;;;;;3.97;1.50;;;7.50;82.00;;;;;;5012232;28;20026;-61
2022/11/27 04:15:46;;;;;;;5.97;1.63;;;7.60;82.00;;;;;;5009624;28;20030;-61
2022/11/27 04:18:12;;;;;;;2.85;1.38;;;7.60;82.00;;;;;;5003723;28;20038;-61
2022/11/27 04:20:38;;;;;;;4.15;1.38;;;7.60;81.90;;;;;;4997486;28;20114;-61
2022/11/27 04:23:03;;;;;;;5.05;1.52;;;7.60;81.90;;;;;;5006130;28;20049;-60
2022/11/27 04:25:29;;;;;;;3.42;1.27;;;7.60;82.00;;;;;;5005999;28;20698;-61
2022/11/27 04:27:55;;;;;;;3.30;1.65;;;7.50;82.00;;;;;;5000246;28;20042;-61
2022/11/27 04:30:21;;;;;;;2.20;1.33;;;7.60;82.60;;;;;;5004814;28;20105;-61
2022/11/27 04:32:47;;;;;;;2.03;1.00;;;7.60;82.10;;;;;;5002660;28;20374;-61
2022/11/27 04:35:12;;;;;;;5.97;1.80;;;7.60;82.10;;;;;;5005591;28;20033;-61
2022/11/27 04:37:38;;;;;;;2.47;1.23;;;7.60;82.00;;;;;;5000410;28;20029;-60
2022/11/27 04:40:05;;;;;;;1.35;1.25;;;7.60;82.00;;;;;;4996340;28;21057;-61
2022/11/27 04:42:31;;;;;;;4.40;1.70;;;7.60;81.90;;;;;;4996762;28;20029;-61
2022/11/27 04:44:56;;;;;;;1.75;1.25;;;7.70;81.90;;;;;;4996843;28;20481;-61
2022/11/27 04:47:22;;;;;;;3.97;1.77;;;7.70;81.90;;;;;;5006903;28;20034;-61
2022/11/27 04:49:48;;;;;;;1.48;1.30;;;7.70;81.90;;;;;;4996654;28;20027;-61
2022/11/27 04:52:14;;;;;;;4.13;1.95;;;7.70;81.80;;;;;;5002013;28;20038;-61
2022/11/27 04:54:39;;;;;;;1.48;1.02;;;7.70;81.80;;;;;;4998702;28;20117;-61
2022/11/27 04:57:05;;;;;;;2.40;1.40;;;7.70;81.70;;;;;;4992544;28;20027;-61
2022/11/27 04:59:31;;;;;;;2.30;1.63;;;7.70;81.60;;;;;;5004447;28;20033;-61
2022/11/27 05:01:57;;;;;;;7.82;2.35;;;7.70;81.50;;;;;;4997981;28;20470;-62
2022/11/27 05:04:23;;;;;;;1.52;1.30;;;7.70;81.60;;;;;;5008600;28;20028;-62
2022/11/27 05:06:49;;;;;;;2.67;1.23;;;7.70;81.70;;;;;;5008373;28;20113;-62
2022/11/27 05:09:16;;;;;;;2.40;1.73;;;7.70;81.60;;;;;;5002465;28;20122;-62
2022/11/27 05:11:42;;;;;;;4.22;1.38;;;7.70;81.60;;;;;;4988502;28;20026;-62
2022/11/27 05:14:15;;;;;;;1.38;1.00;;;7.70;81.60;;;;;;4998772;28;20036;-62
2022/11/27 05:16:42;;;;;;;1.60;0.90;;;7.70;81.60;;;;;;4999016;28;20112;-61
2022/11/27 05:19:09;;;;;;;2.22;1.33;;;7.70;81.60;;;;;;5005377;28;20045;-62
2022/11/27 05:21:36;;;;;;;2.38;1.23;;;7.70;81.60;;;;;;5008151;28;20053;-61
2022/11/27 05:24:02;;;;;;;2.45;1.55;;;7.80;81.60;;;;;;5001491;28;20032;-61
2022/11/27 05:26:28;;;;;;;2.22;1.25;;;7.80;81.50;;;;;;4997394;28;20424;-61
2022/11/27 05:28:53;;;;;;;2.03;1.58;;;7.70;81.50;;;;;;4996117;28;20043;-61
2022/11/27 05:31:19;;;;;;;4.22;2.20;;;7.70;81.50;;;;;;4992130;28;20400;-61
2022/11/27 05:33:45;;;;;;;1.33;1.00;;;7.70;81.40;;;;;;4983246;28;20088;-61
2022/11/27 05:36:11;;;;;;;1.58;1.30;;;7.70;81.40;;;;;;4999812;28;20034;-61
2022/11/27 05:38:36;;;;;;;10.90;2.00;;;7.70;81.40;;;;;;5021635;28;20038;-61
2022/11/27 05:41:02;;;;;;;3.95;1.50;;;7.70;81.40;;;;;;5024257;28;20565;-61
2022/11/27 05:43:28;;;;;;;3.35;1.60;;;7.70;81.40;;;;;;4991573;28;20036;-61
2022/11/27 05:45:53;;;;;;;3.70;2.03;;;7.70;81.40;;;;;;4992009;28;20037;-62
2022/11/27 05:48:19;;;;;;;4.32;1.85;;;7.80;81.50;;;;;;4995510;28;20505;-62
2022/11/27 05:50:45;;;;;;;1.58;1.35;;;7.70;81.40;;;;;;4998040;28;20048;-62
2022/11/27 05:53:11;;;;;;;1.70;1.60;;;7.80;81.50;;;;;;4993631;28;20400;-62
2022/11/27 05:55:36;;;;;;;1.52;1.20;;;7.80;81.40;;;;;;4999224;28;20038;-60
2022/11/27 05:58:02;;;;;;;2.95;1.48;;;7.80;81.40;;;;;;4992416;28;22092;-60
2022/11/27 06:00:28;;;;;;;1.25;1.00;;;7.80;81.40;;;;;;4997390;28;20034;-60
2022/11/27 06:02:55;;;;;;;2.38;1.38;;;7.80;81.30;;;;;;4993515;28;20398;-60
2022/11/27 06:05:21;;;;;;;0.98;0.90;;;7.80;81.30;;;;;;4992606;28;20433;-61
2022/11/27 06:07:46;;;;;;;4.10;2.13;;;7.80;81.30;;;;;;4993428;28;20088;-60
2022/11/27 06:10:12;;;;;;;2.03;1.42;;;7.80;81.40;;;;;;4992414;28;20198;-61
2022/11/27 06:12:38;;;;;;;3.90;1.77;;;7.80;81.40;;;;;;5022361;28;20031;-61
2022/11/27 06:15:04;;;;;;;1.55;1.35;;;7.90;81.30;;;;;;4992018;28;20520;-61
2022/11/27 06:17:29;;;;;;;1.65;1.30;;;7.90;81.20;;;;;;4991286;28;20057;-60
2022/11/27 06:19:55;;;;;;;5.05;1.77;;;7.90;81.20;;;;;;4993530;28;20105;-61
2022/11/27 06:22:21;;;;;;;1.67;1.27;;;7.90;81.10;;;;;;4991187;28;20030;-60
2022/11/27 06:24:47;;;;;;;3.65;1.50;;;7.90;81.00;;;;;;4991921;28;20056;-61
2022/11/27 06:27:12;;;;;;;2.08;1.25;;;7.90;81.00;;;;;;4993413;28;20046;-60
2022/11/27 06:29:38;;;;;;;3.75;1.88;;;7.90;81.00;;;;;;4999018;28;20041;-61
2022/11/27 06:32:05;;;;;;;2.30;1.95;;;7.90;80.90;;;;;;5005506;28;20045;-61
2022/11/27 06:34:31;;;;;;;2.67;1.77;;;7.90;81.00;;;;;;5008171;28;20405;-61
2022/11/27 06:36:56;;;;;;;6.82;1.60;;;7.90;81.00;;;;;;4996834;28;20022;-61
2022/11/27 06:39:22;;;;;;;1.33;1.17;;;8.00;81.00;;;;;;5011000;28;20169;-61
2022/11/27 06:41:47;;;;;;;2.30;1.83;;;8.00;81.00;;;;;;4990635;28;20046;-61
2022/11/27 06:44:13;;;;;;;2.75;1.88;;;8.00;81.00;;;;;;4983737;28;20170;-61
2022/11/27 06:46:39;;;;;;;2.03;1.27;;;8.00;81.00;;;;;;4998212;28;20076;-61
2022/11/27 06:49:04;;;;;;;5.28;2.22;;;8.00;81.00;;;;;;4994420;28;20030;-65
2022/11/27 06:51:31;;;;;;;2.85;1.75;;;8.00;81.00;;;;;;5003703;28;20443;-62
2022/11/27 06:53:59;;;;;;;3.72;1.40;;;8.00;81.00;;;;;;4998917;28;20406;-64
2022/11/27 06:56:26;;;;;;;2.50;1.92;;;8.00;81.00;;;;;;4993672;28;20026;-64
2022/11/27 06:58:57;;;;;;;7.03;1.58;;;8.00;81.00;;;;;;4975873;28;20393;-64
2022/11/27 07:01:25;;;;;;;5.88;1.90;;;8.00;81.00;;;;;;5006149;28;20025;-64
2022/11/27 07:03:51;;;;;;;1.52;1.27;;;8.00;81.00;;;;;;4991207;28;20030;-64
2022/11/27 07:06:20;;;;;;;1.85;1.48;;;8.00;81.10;;;;;;4989012;28;20049;-63
2022/11/27 07:08:46;;;;;;;1.80;1.63;;;8.00;81.00;;;;;;4992868;28;20491;-64
2022/11/27 07:11:14;;;;;;;4.40;1.63;;;8.00;81.00;;;;;;4998969;28;20041;-67
2022/11/27 07:13:40;;;;;;;3.50;2.15;;;8.00;81.00;;;;;;4994568;28;20363;-64
2022/11/27 07:16:08;;;;;;;4.80;2.03;;;8.00;80.90;;;;;;4992538;28;20026;-65
2022/11/27 07:18:37;;;;;;;2.42;1.55;;;7.90;81.40;;;;;;4989579;28;20685;-65
2022/11/27 07:21:03;;;;;;;1.42;1.10;;;7.90;80.90;;;;;;4993463;28;20049;-65
2022/11/27 07:23:29;;;;;;;3.50;2.00;;;7.90;80.90;;;;;;5000882;28;20080;-65
2022/11/27 07:25:54;;;;;;;1.90;1.50;;;8.00;81.00;;;;;;4990594;28;20089;-63
2022/11/27 07:28:20;;;;;;;1.52;1.40;;;8.00;80.80;;;;;;5003230;28;20497;-63
2022/11/27 07:30:54;;;;;;;3.20;1.90;;;8.00;80.80;;;;;;4989611;28;20030;-64
2022/11/27 07:33:20;;;;;;;2.80;1.73;;;8.00;80.70;;;;;;4996814;28;20056;-64
2022/11/27 07:35:45;;;;;;;3.15;1.83;;;8.00;80.80;;;;;;4995122;28;20132;-63
2022/11/27 07:38:11;;;;;;;2.25;1.95;;;8.00;80.80;;;;;;4997642;28;20044;-62
2022/11/27 07:40:37;;;;;;;3.95;1.98;;;8.00;80.90;;;;;;5003225;28;20109;-62
2022/11/27 07:43:03;;;;;;;3.15;1.90;;;8.00;80.80;;;;;;4996213;28;20030;-67
2022/11/27 07:45:29;;;;;;;2.80;1.60;;;8.00;80.80;;;;;;4993819;28;20366;-68
2022/11/27 07:47:54;;;;;;;4.63;1.75;;;8.10;80.80;;;;;;5003565;28;20070;-68
2022/11/27 07:50:20;;;;;;;3.70;2.05;;;8.00;80.80;;;;;;5030459;28;20026;-65
2022/11/27 07:52:46;;;;;;;2.60;1.90;;;8.00;80.90;;;;;;4991856;28;20062;-65
2022/11/27 07:55:12;;;;;;;4.05;2.50;;;8.00;80.80;;;;;;4990398;28;20080;-63
2022/11/27 07:57:38;;;;;;;3.30;1.58;;;8.00;80.90;;;;;;4996598;28;20421;-67
2022/11/27 08:00:05;;;;;;;3.33;1.73;;;8.10;81.00;;;;;;4997793;28;20030;-68
2022/11/27 08:02:30;;;;;;;2.45;2.03;;;8.10;80.90;;;;;;4991879;28;20030;-66
2022/11/27 08:04:56;;;;;;;4.38;3.03;;;8.10;80.80;;;;;;4991098;28;20461;-67
2022/11/27 08:07:29;;;;;;;4.78;2.88;;;8.10;80.80;;;;;;4988856;28;20066;-67
2022/11/27 08:09:57;;;;;;;4.72;2.42;;;8.10;80.80;;;;;;4991993;28;20113;-65
2022/11/27 08:12:23;;;;;;;4.78;2.20;;;8.00;80.90;;;;;;4995550;28;20038;-67
2022/11/27 08:14:49;;;;;;;5.32;2.83;;;8.10;81.00;;;;;;5000611;28;20465;-66
2022/11/27 08:17:15;;;;;;;4.25;2.60;;;8.10;80.90;;;;;;4996172;28;20030;-67
2022/11/27 08:19:41;;;;;;;3.53;1.65;;;8.10;81.00;;;;;;4999292;28;20108;-64
2022/11/27 08:22:14;;;;;;;6.03;2.67;;;8.10;81.00;;;;;;4993769;28;20392;-63
2022/11/27 08:24:41;;;;;;;3.92;1.88;;;8.10;81.00;;;;;;5007001;28;20105;-63
2022/11/27 08:27:08;;;;;;;2.78;2.08;;;8.10;81.20;;;;;;4989874;28;20030;-64
2022/11/27 08:29:34;;;;;;;3.90;2.42;;;8.10;81.10;;;;;;4988581;28;20043;-65
2022/11/27 08:31:59;;;;;;;4.18;2.75;;;8.10;81.10;;;;;;4990885;28;20041;-65
2022/11/27 08:34:28;;;;;;;3.13;1.92;;;8.10;81.10;;;;;;4989104;28;20033;-64
2022/11/27 08:36:53;;;;;;;4.07;2.70;;;8.10;81.20;;;;;;5004409;28;20513;-63
2022/11/27 08:39:19;;;;;;;5.25;2.33;;;8.10;81.20;;;;;;4987169;28;20117;-63
2022/11/27 08:41:45;;;;;;;4.05;2.72;;;8.10;81.30;;;;;;4983702;28;20026;-63
2022/11/27 08:44:10;;;;;;;7.85;3.38;;;8.10;81.30;;;;;;4988529;28;20038;-63
2022/11/27 08:46:36;;;;;;;5.60;2.80;;;8.10;81.30;;;;;;4988293;28;20114;-63
2022/11/27 08:49:02;;;;;;;4.60;3.42;;;8.10;81.40;;;;;;4988183;28;20046;-63
2022/11/27 08:51:27;;;;;;;3.40;1.98;;;8.10;81.50;;;;;;4988768;28;20030;-63
2022/11/27 08:53:53;;;;;;;4.35;3.03;;;8.10;81.40;;;;;;4991670;28;20071;-63
2022/11/27 08:56:22;;;;;;;4.32;3.05;;;8.10;81.50;;;;;;4990656;28;20083;-64
2022/11/27 08:58:48;;;;;;;4.40;2.85;;;8.10;81.60;;;;;;4990409;28;20406;-63
2022/11/27 09:01:23;;;;;;;5.03;3.05;;;8.10;81.70;;;;;;4988730;28;20057;-64
2022/11/27 09:03:49;;;;;;;5.45;3.35;;;8.10;81.80;;;;;;4990341;28;20026;-63
2022/11/27 09:06:22;;;;;;;3.83;2.08;;;8.00;81.90;;;;;;4984909;28;20038;-63
2022/11/27 09:08:49;;;;;;;3.67;2.67;;;8.10;82.00;;;;;;4992815;28;20038;-63
2022/11/27 09:11:17;;;;;;;3.90;2.85;;;8.00;82.00;;;;;;4991614;28;20035;-63
2022/11/27 09:13:44;;;;;;;9.27;2.67;;;8.10;82.10;;;;;;4990468;28;20030;-63
2022/11/27 09:16:12;;;;;;;10.13;3.72;;;8.10;82.10;;;;;;4991804;28;20058;-63
2022/11/27 09:18:39;;;;;;;5.18;2.67;;;8.10;82.00;;;;;;4984040;28;20033;-64
2022/11/27 09:21:09;;;;;;;5.70;2.45;;;8.20;82.00;;;;;;4987479;28;20029;-63
2022/11/27 09:23:39;;;;;;;5.32;2.83;;;8.20;81.90;;;;;;4983610;28;20037;-64
2022/11/27 09:26:13;;;;;;;8.68;3.10;;;8.20;82.00;;;;;;4987298;28;20097;-64
2022/11/27 09:28:40;;;;;;;2.85;2.42;;;8.20;82.00;;;;;;4987397;28;20050;-63
2022/11/27 09:31:08;;;;;;;2.97;2.25;;;8.20;82.10;;;;;;4985154;28;20117;-63
2022/11/27 09:33:35;;;;;;;7.55;3.63;;;8.20;82.20;;;;;;4992556;28;20477;-64
2022/11/27 09:36:17;;;;;;;4.00;2.95;;;8.20;82.10;;;;;;4995831;28;20076;-64
2022/11/27 09:38:43;;;;;;;4.30;2.42;;;8.30;82.20;;;;;;4991689;28;20466;-64
2022/11/27 09:41:16;;;;;;;6.07;3.03;;;8.20;82.20;;;;;;4991123;28;20077;-64
2022/11/27 09:43:55;;;;;;;3.92;2.72;;;8.30;82.20;;;;;;4987294;28;20045;-64
2022/11/27 09:46:35;;;;;;;7.68;3.25;;;8.30;82.30;;;;;;4996955;28;20041;-65
2022/11/27 09:49:06;;;;;;;5.03;2.60;;;8.30;82.30;;;;;;4989394;28;20108;-64
2022/11/27 09:51:52;;;;;;;5.78;2.60;;;8.30;82.40;;;;;;4993465;28;20033;-64
2022/11/27 09:54:33;;;;;;;2.80;2.22;;;8.30;82.30;;;;;;4994935;28;20041;-64
2022/11/27 09:56:59;;;;;;;5.57;2.28;;;8.30;82.40;;;;;;4985798;28;20062;-64
2022/11/27 09:59:38;;;;;;;2.53;2.33;;;8.30;82.40;;;;;;4992168;28;20026;-65
2022/11/27 10:02:15;;;;;;;4.72;2.58;;;8.40;82.40;;;;;;4989143;28;20030;-64
2022/11/27 10:04:41;;;;;;;6.32;2.65;;;8.40;82.30;;;;;;4990178;28;20266;-64
2022/11/27 10:07:57;;;;;;;6.45;3.35;;;8.40;82.30;;;;;;4997174;28;20041;-64
2022/11/27 10:10:28;;;;;;;3.72;2.78;;;8.50;82.10;;;;;;4952546;28;20036;-64
2022/11/27 10:13:55;;;;;;;4.25;2.97;;;8.40;82.30;;;;;;4989175;28;20067;-64
2022/11/27 10:16:40;;;;;;;4.80;2.97;;;8.50;82.20;;;;;;4915900;29;20439;-64
2022/11/27 10:19:26;;;;;;;4.72;2.83;;;8.50;82.30;;;;;;4989602;28;20034;-64
2022/11/27 10:22:23;;;;;;;3.63;2.88;;;8.50;82.30;;;;;;4993619;28;20421;-64
2022/11/27 10:24:58;;;;;;;5.05;3.00;;;8.50;82.40;;;;;;5024683;28;20026;-64
2022/11/27 10:27:44;;;;;;;6.32;2.88;;;8.60;82.40;;;;;;4993527;28;20026;-64
2022/11/27 10:30:19;;;;;;;3.90;2.55;;;8.60;82.40;;;;;;4989008;28;20027;-65
2022/11/27 10:32:48;;;;;;;3.85;2.42;;;8.60;82.50;;;;;;5022468;28;20026;-64
2022/11/27 10:35:20;;;;;;;5.72;2.50;;;8.60;82.50;;;;;;5000786;28;20050;-64
2022/11/27 10:37:53;;;;;;;5.05;2.88;;;8.60;82.50;;;;;;4997151;28;20101;-64
2022/11/27 10:40:46;;;;;;;4.82;2.40;;;8.60;82.50;;;;;;5007048;28;20308;-64
2022/11/27 10:43:19;;;;;;;4.65;2.42;;;8.60;82.40;;;;;;4998169;28;20034;-64
2022/11/27 10:45:48;;;;;;;3.60;2.30;;;8.70;82.60;;;;;;4995812;28;20029;-64
2022/11/27 10:48:14;;;;;;;5.68;2.70;;;8.70;82.50;;;;;;4991295;28;20129;-64
2022/11/27 10:50:41;;;;;;;5.72;3.03;;;8.70;82.50;;;;;;4991453;28;20022;-64
2022/11/27 10:53:31;;;;;;;5.45;1.83;;;8.70;82.40;;;;;;4991960;28;20034;-64
2022/11/27 10:56:15;;;;;;;3.47;1.85;;;8.80;82.50;;;;;;4986682;28;20042;-64
2022/11/27 10:58:54;;;;;;;3.08;1.95;;;8.80;82.40;;;;;;4991955;28;20030;-64
2022/11/27 11:01:21;;;;;;;8.02;2.33;;;8.80;82.60;;;;;;4992724;28;20355;-64
2022/11/27 11:03:47;;;;;;;2.60;1.83;;;8.80;82.50;;;;;;4992304;28;20027;-64
2022/11/27 11:06:22;;;;;;;3.13;2.10;;;8.80;82.50;;;;;;4993470;28;20030;-64
2022/11/27 11:09:04;;;;;;;2.75;2.15;;;8.80;82.40;;;;;;4993295;28;20377;-64
2022/11/27 11:11:30;;;;;;;2.42;2.22;;;8.80;82.50;;;;;;4991843;28;20038;-64
2022/11/27 11:13:55;;;;;;;3.00;2.00;;;8.80;82.50;;;;;;4993775;28;20022;-64
2022/11/27 11:16:29;;;;;;;5.50;3.38;;;8.80;82.50;;;;;;4989390;28;20030;-64
2022/11/27 11:18:57;;;;;;;2.75;2.33;;;8.80;82.40;;;;;;4991255;28;20014;-64
2022/11/27 11:21:37;;;;;;;2.35;2.08;;;8.80;82.40;;;;;;5010570;28;20026;-64
2022/11/27 11:24:05;;;;;;;2.95;2.13;;;8.80;82.40;;;;;;4993840;28;20102;-64
2022/11/27 11:26:36;;;;;;;2.22;1.75;;;8.90;82.60;;;;;;4990280;28;20058;-64
2022/11/27 11:29:16;;;;;;;2.60;1.90;;;8.90;82.50;;;;;;4990898;28;20116;-64
2022/11/27 11:31:43;;;;;;;4.60;2.60;;;8.90;82.50;;;;;;5004441;28;20038;-64
2022/11/27 11:34:28;;;;;;;6.00;2.10;;;8.90;82.50;;;;;;4992339;28;20116;-64
2022/11/27 11:37:00;;;;;;;2.10;1.70;;;8.90;82.50;;;;;;5009891;28;20021;-64
2022/11/27 11:39:28;;;;;;;2.92;2.00;;;8.90;82.50;;;;;;5010751;28;20022;-65
2022/11/27 11:41:55;;;;;;;3.75;2.35;;;8.90;82.40;;;;;;5008837;28;20021;-64
2022/11/27 11:44:31;;;;;;;4.88;2.00;;;8.90;82.50;;;;;;5009496;28;20484;-64
2022/11/27 11:46:57;;;;;;;5.45;2.95;;;8.90;82.60;;;;;;4984343;28;20030;-65
2022/11/27 11:49:28;;;;;;;3.63;2.47;;;8.90;82.60;;;;;;5010444;28;20025;-64
2022/11/27 11:52:02;;;;;;;3.40;2.88;;;9.00;82.60;;;;;;5002663;28;20109;-64
2022/11/27 11:54:46;;;;;;;4.88;2.42;;;9.00;82.60;;;;;;4991511;28;20477;-64
2022/11/27 11:57:30;;;;;;;3.88;2.30;;;9.00;82.70;;;;;;4990713;28;20041;-64
2022/11/27 12:00:29;;;;;;;4.05;2.40;;;9.00;82.60;;;;;;4978762;28;20403;-64
2022/11/27 12:03:26;;;;;;;2.63;2.15;;;9.10;82.70;;;;;;4991953;28;20027;-64
2022/11/27 12:06:10;;;;;;;5.03;2.30;;;9.10;82.60;;;;;;4979745;28;20110;-64
2022/11/27 12:09:11;;;;;;;4.72;2.30;;;9.10;82.70;;;;;;4991632;28;20136;-64
2022/11/27 12:11:43;;;;;;;5.03;2.90;;;9.10;82.50;;;;;;4949248;28;20039;-64
2022/11/27 12:14:17;;;;;;;2.55;2.22;;;9.00;82.80;;;;;;4985411;28;20501;-64
2022/11/27 12:17:02;;;;;;;3.55;2.13;;;9.00;82.80;;;;;;4991366;28;20022;-64
2022/11/27 12:19:49;;;;;;;4.03;2.30;;;9.10;82.80;;;;;;4991965;28;20113;-64
2022/11/27 12:22:23;;;;;;;3.72;2.00;;;9.00;82.70;;;;;;4992008;28;20034;-64
2022/11/27 12:24:58;;;;;;;2.72;2.22;;;9.10;82.80;;;;;;4994844;28;20090;-64
2022/11/27 12:27:52;;;;;;;5.80;2.83;;;9.10;82.80;;;;;;4993763;28;20468;-64
2022/11/27 12:30:21;;;;;;;3.40;2.25;;;9.10;82.60;;;;;;4994264;28;20053;-64
2022/11/27 12:32:59;;;;;;;4.40;2.53;;;9.10;82.60;;;;;;4993750;28;20463;-64
2022/11/27 12:35:41;;;;;;;3.70;2.15;;;9.20;82.60;;;;;;4994598;28;20346;-63
2022/11/27 12:38:27;;;;;;;2.97;1.85;;;9.20;82.50;;;;;;4994553;28;20393;-63
2022/11/27 12:41:21;;;;;;;3.40;1.83;;;9.20;82.50;;;;;;4994478;28;20105;-63
2022/11/27 12:43:54;;;;;;;2.55;1.80;;;9.30;82.50;;;;;;4994354;28;20170;-64
2022/11/27 12:46:36;;;;;;;2.72;2.00;;;9.30;82.40;;;;;;4994972;28;20026;-63
2022/11/27 12:49:16;;;;;;;3.25;1.60;;;9.30;82.40;;;;;;4992955;28;20067;-63
2022/11/27 12:52:02;;;;;;;5.53;2.05;;;9.30;82.30;;;;;;4995048;28;20077;-63
2022/11/27 12:54:33;;;;;;;2.83;1.73;;;9.30;82.40;;;;;;4987037;28;20031;-64
2022/11/27 12:57:06;;;;;;;4.20;1.65;;;9.30;82.50;;;;;;4993336;28;20018;-64
2022/11/27 12:59:33;;;;;;;;;;;9.30;82.60;;;;;;4994938;28;20042;-63
2022/11/27 13:02:05;;;;;;;4.43;2.10;;;9.30;82.60;;;;;;4992535;28;19905;-65
2022/11/27 13:04:42;;;;;;;3.03;2.35;;;9.20;82.70;;;;;;4992571;28;20027;-64
2022/11/27 13:07:14;;;;;;;1.58;1.48;;;9.20;82.60;;;;;;4992675;28;20049;-64
2022/11/27 13:09:49;;;;;;;;;;;9.20;82.70;;;;;;5025140;28;20092;-64
2022/11/27 13:12:33;;;;;;;5.80;2.40;;;9.20;82.70;;;;;;4992476;28;19906;-64
2022/11/27 13:15:18;;;;;;;3.08;2.00;;;9.20;82.70;;;;;;5025172;28;20110;-64
2022/11/27 13:17:48;;;;;;;4.07;2.40;;;9.20;82.60;;;;;;4993763;28;20029;-64